createdAt,value
2018-04-06T00:00:28.991Z,78.95
2018-04-06T00:01:09.392Z,79.23
2018-04-06T00:01:49.789Z,79.8
2018-04-06T00:02:30.225Z,79.9
2018-04-06T00:03:10.544Z,80.08
2018-04-06T00:03:50.952Z,79.33
2018-04-06T00:04:31.347Z,79.33
2018-04-06T00:05:11.727Z,78.85
2018-04-06T00:05:52.152Z,78.95
2018-04-06T00:06:32.567Z,79.61
2018-04-06T00:07:13.006Z,79.8
2018-04-06T00:07:53.395Z,79.61
2018-04-06T00:08:33.859Z,79.99
2018-04-06T00:09:14.145Z,79.14
2018-04-06T00:09:54.613Z,79.42
2018-04-06T00:10:35.023Z,79.23
2018-04-06T00:11:15.391Z,78.75
2018-04-06T00:11:55.786Z,79.42
2018-04-06T00:12:36.129Z,79.52
2018-04-06T00:13:16.528Z,79.9
2018-04-06T00:13:56.997Z,80.65
2018-04-06T00:14:37.386Z,80.65
2018-04-06T00:15:17.826Z,79.9
2018-04-06T00:15:58.145Z,80.65
2018-04-06T00:16:38.497Z,79.9
2018-04-06T00:17:18.939Z,79.71
2018-04-06T00:17:59.349Z,79.23
2018-04-06T00:18:40.617Z,79.8
2018-04-06T00:19:20.995Z,79.99
2018-04-06T00:20:01.403Z,80.75
2018-04-06T00:20:41.847Z,80.04
2018-04-06T00:21:22.181Z,79.71
2018-04-06T00:22:02.557Z,80.56
2018-04-06T00:22:43.026Z,80.8
2018-04-06T00:23:23.406Z,79.9
2018-04-06T00:24:03.870Z,80.04
2018-04-06T00:24:44.201Z,79.76
2018-04-06T00:25:24.680Z,79.76
2018-04-06T00:26:04.981Z,79.85
2018-04-06T00:26:45.422Z,80.24
2018-04-06T00:27:25.816Z,79.66
2018-04-06T00:28:06.186Z,81.47
2018-04-06T00:28:46.649Z,82.42
2018-04-06T00:29:27.052Z,81.56
2018-04-06T00:30:07.411Z,81.85
2018-04-06T00:30:47.775Z,81.66
2018-04-06T00:31:28.172Z,81.75
2018-04-06T00:32:08.540Z,81.47
2018-04-06T00:32:48.922Z,81.47
2018-04-06T00:33:29.388Z,81.32
2018-04-06T00:34:09.776Z,81.85
2018-04-06T00:34:50.109Z,81.88
2018-04-06T00:35:30.536Z,81.88
2018-04-06T00:36:10.965Z,81.13
2018-04-06T00:36:51.318Z,81.88
2018-04-06T00:37:31.715Z,81.88
2018-04-06T00:38:12.159Z,80.75
2018-04-06T00:38:52.642Z,80.94
2018-04-06T00:39:32.942Z,80.94
2018-04-06T00:40:13.437Z,81.88
2018-04-06T00:40:53.744Z,82.74
2018-04-06T00:41:34.211Z,83.4
2018-04-06T00:42:14.539Z,82.97
2018-04-06T00:42:54.971Z,81.65
2018-04-06T00:43:35.408Z,80.13
2018-04-06T00:44:15.721Z,80.13
2018-04-06T00:44:56.190Z,78.13
2018-04-06T00:45:36.553Z,77.94
2018-04-06T00:46:16.894Z,76.99
2018-04-06T00:46:57.320Z,76.23
2018-04-06T00:47:37.716Z,75.09
2018-04-06T00:48:18.118Z,75.85
2018-04-06T00:48:58.472Z,76.71
2018-04-06T00:49:38.829Z,77.37
2018-04-06T00:50:19.316Z,76.8
2018-04-06T00:50:59.681Z,77.28
2018-04-06T00:51:40.148Z,77.28
2018-04-06T00:52:20.461Z,78.8
2018-04-06T00:53:00.890Z,78.89
2018-04-06T00:53:41.283Z,78.99
2018-04-06T00:54:21.645Z,77.37
2018-04-06T00:55:02.073Z,75.95
2018-04-06T00:55:42.520Z,75
2018-04-06T00:56:22.968Z,75.19
2018-04-06T00:57:03.377Z,75.95
2018-04-06T00:57:43.795Z,75.67
2018-04-06T00:58:24.203Z,76.32
2018-04-06T00:59:04.622Z,76.99
2018-04-06T00:59:45.036Z,77.66
2018-04-06T01:00:25.373Z,77.62
2018-04-06T01:01:05.788Z,77.62
2018-04-06T01:01:46.194Z,77.62
2018-04-06T01:02:26.588Z,78.28
2018-04-06T01:03:06.950Z,78.32
2018-04-06T01:03:47.430Z,78.28
2018-04-06T01:04:27.737Z,78.38
2018-04-06T01:05:08.167Z,78.19
2018-04-06T01:05:48.507Z,77.94
2018-04-06T01:06:28.968Z,77.84
2018-04-06T01:07:09.393Z,77.81
2018-04-06T01:07:49.752Z,77.84
2018-04-06T01:08:30.100Z,78
2018-04-06T01:09:10.548Z,77.81
2018-04-06T01:09:50.974Z,78.38
2018-04-06T01:10:31.280Z,78.75
2018-04-06T01:11:11.661Z,79.23
2018-04-06T01:11:52.150Z,78.56
2018-04-06T01:12:32.509Z,78.19
2018-04-06T01:13:12.923Z,78.47
2018-04-06T01:13:53.335Z,78.75
2018-04-06T01:14:33.712Z,78.95
2018-04-06T01:15:14.069Z,79.14
2018-04-06T01:15:54.461Z,78.95
2018-04-06T01:16:34.873Z,78.85
2018-04-06T01:17:15.303Z,78.95
2018-04-06T01:17:55.666Z,78.56
2018-04-06T01:18:36.057Z,78.56
2018-04-06T01:19:16.542Z,78.28
2018-04-06T01:19:56.845Z,78.85
2018-04-06T01:20:37.245Z,79.23
2018-04-06T01:21:17.641Z,79.23
2018-04-06T01:21:58.056Z,79.61
2018-04-06T01:22:38.409Z,79.9
2018-04-06T01:23:18.790Z,80.84
2018-04-06T01:23:59.265Z,80.56
2018-04-06T01:24:39.561Z,80.27
2018-04-06T01:25:19.977Z,79.9
2018-04-06T01:26:00.464Z,80.18
2018-04-06T01:26:40.797Z,80.18
2018-04-06T01:27:21.178Z,79.33
2018-04-06T01:28:01.550Z,79.42
2018-04-06T01:28:41.980Z,79.9
2018-04-06T01:29:22.339Z,80.08
2018-04-06T01:30:02.703Z,79.99
2018-04-06T01:30:43.188Z,80.37
2018-04-06T01:31:23.581Z,79.9
2018-04-06T01:32:03.967Z,79.99
2018-04-06T01:32:44.375Z,79.9
2018-04-06T01:33:24.749Z,79.04
2018-04-06T01:34:05.147Z,79.23
2018-04-06T01:34:45.506Z,79.8
2018-04-06T01:35:25.951Z,79.8
2018-04-06T01:36:06.314Z,80.46
2018-04-06T01:36:46.736Z,80.84
2018-04-06T01:37:27.083Z,79.71
2018-04-06T01:38:07.458Z,79.38
2018-04-06T01:38:47.914Z,79.99
2018-04-06T01:39:28.354Z,80.75
2018-04-06T01:40:08.850Z,80.75
2018-04-06T01:40:49.194Z,80.56
2018-04-06T01:41:29.650Z,80.33
2018-04-06T01:42:10.054Z,80.62
2018-04-06T01:42:50.447Z,80.52
2018-04-06T01:43:30.840Z,80.24
2018-04-06T01:44:11.209Z,80.24
2018-04-06T01:44:51.652Z,80.14
2018-04-06T01:45:32.064Z,80.62
2018-04-06T01:46:12.518Z,80.71
2018-04-06T01:46:52.851Z,80.71
2018-04-06T01:47:33.191Z,80.24
2018-04-06T01:48:13.650Z,80.43
2018-04-06T01:48:54.009Z,80.43
2018-04-06T01:49:34.416Z,81.85
2018-04-06T01:50:14.784Z,81.98
2018-04-06T01:50:55.184Z,80.75
2018-04-06T01:51:35.542Z,79.47
2018-04-06T01:52:15.941Z,79.85
2018-04-06T01:52:56.353Z,80.33
2018-04-06T01:53:36.776Z,80.33
2018-04-06T01:54:17.187Z,80.43
2018-04-06T01:54:57.480Z,79.76
2018-04-06T01:55:37.936Z,79.85
2018-04-06T01:56:18.344Z,79.95
2018-04-06T01:56:58.769Z,79.85
2018-04-06T01:57:39.134Z,80.62
2018-04-06T01:58:19.537Z,80.99
2018-04-06T01:58:59.937Z,80.71
2018-04-06T01:59:40.326Z,81.47
2018-04-06T02:00:20.725Z,80.9
2018-04-06T02:01:01.122Z,81.85
2018-04-06T02:01:41.522Z,81.27
2018-04-06T02:02:21.986Z,81.18
2018-04-06T02:03:02.382Z,81.09
2018-04-06T02:03:42.817Z,80.71
2018-04-06T02:04:23.211Z,80.62
2018-04-06T02:05:03.624Z,80.9
2018-04-06T02:05:43.963Z,80.86
2018-04-06T02:06:24.359Z,81.43
2018-04-06T02:07:04.768Z,83.13
2018-04-06T02:07:45.201Z,83.23
2018-04-06T02:08:25.589Z,82.66
2018-04-06T02:09:05.974Z,82.09
2018-04-06T02:09:46.377Z,81.81
2018-04-06T02:10:26.809Z,81.62
2018-04-06T02:11:07.179Z,81.43
2018-04-06T02:11:47.599Z,81.62
2018-04-06T02:12:28.009Z,82.75
2018-04-06T02:13:08.382Z,82.66
2018-04-06T02:13:48.862Z,82.75
2018-04-06T02:14:29.198Z,82.66
2018-04-06T02:15:09.580Z,83.32
2018-04-06T02:15:49.977Z,83.42
2018-04-06T02:16:30.385Z,83.51
2018-04-06T02:17:10.814Z,83.7
2018-04-06T02:17:51.218Z,83.61
2018-04-06T02:18:31.615Z,83.47
2018-04-06T02:19:12.082Z,83.56
2018-04-06T02:19:52.454Z,84.32
2018-04-06T02:20:32.918Z,84.23
2018-04-06T02:21:13.234Z,84.7
2018-04-06T02:21:53.652Z,85.17
2018-04-06T02:22:34.117Z,85.08
2018-04-06T02:23:14.488Z,85.84
2018-04-06T02:23:54.839Z,85.36
2018-04-06T02:24:35.404Z,86.03
2018-04-06T02:25:15.699Z,85.08
2018-04-06T02:25:56.037Z,84.99
2018-04-06T02:26:36.431Z,84.89
2018-04-06T02:27:16.849Z,86.74
2018-04-06T02:27:57.253Z,85.97
2018-04-06T02:28:37.621Z,86.07
2018-04-06T02:29:17.986Z,84.74
2018-04-06T02:29:58.347Z,85.22
2018-04-06T02:30:38.787Z,84.55
2018-04-06T02:31:19.178Z,85.6
2018-04-06T02:31:59.500Z,85.78
2018-04-06T02:32:39.885Z,84.78
2018-04-06T02:33:20.325Z,83.46
2018-04-06T02:34:00.636Z,83.36
2018-04-06T02:34:41.155Z,82.13
2018-04-06T02:35:21.557Z,81.27
2018-04-06T02:36:02.097Z,82.23
2018-04-06T02:36:42.344Z,81.27
2018-04-06T02:37:22.744Z,81.94
2018-04-06T02:38:03.166Z,82.23
2018-04-06T02:38:43.510Z,81.75
2018-04-06T02:39:23.898Z,81.56
2018-04-06T02:40:04.269Z,81.27
2018-04-06T02:40:44.640Z,81.18
2018-04-06T02:41:25.118Z,80.9
2018-04-06T02:42:05.524Z,81.94
2018-04-06T02:42:45.995Z,81.37
2018-04-06T02:43:26.352Z,80.52
2018-04-06T02:44:06.824Z,79.85
2018-04-06T02:44:47.170Z,81.47
2018-04-06T02:45:27.563Z,81.27
2018-04-06T02:46:08.044Z,80.52
2018-04-06T02:46:48.340Z,80.71
2018-04-06T02:47:28.856Z,80.52
2018-04-06T02:48:09.151Z,81.18
2018-04-06T02:48:49.646Z,81.75
2018-04-06T02:49:30.004Z,81.56
2018-04-06T02:50:10.445Z,81.66
2018-04-06T02:50:50.796Z,81.66
2018-04-06T02:51:31.165Z,81.47
2018-04-06T02:52:11.607Z,80.8
2018-04-06T02:52:52.021Z,80.52
2018-04-06T02:53:32.421Z,81.14
2018-04-06T02:54:12.789Z,82.7
2018-04-06T02:54:53.136Z,82.6
2018-04-06T02:55:33.525Z,82.13
2018-04-06T02:56:13.886Z,82.6
2018-04-06T02:56:54.337Z,82.89
2018-04-06T02:57:34.735Z,82.13
2018-04-06T02:58:15.086Z,82.04
2018-04-06T02:58:55.454Z,82.32
2018-04-06T02:59:35.967Z,82.13
2018-04-06T03:00:16.340Z,80.99
2018-04-06T03:00:56.675Z,81.85
2018-04-06T03:01:37.100Z,81.18
2018-04-06T03:02:17.518Z,80.33
2018-04-06T03:02:57.990Z,81.37
2018-04-06T03:03:38.337Z,81.85
2018-04-06T03:04:18.732Z,81.18
2018-04-06T03:04:59.126Z,81.66
2018-04-06T03:05:39.561Z,82.7
2018-04-06T03:06:19.902Z,82.51
2018-04-06T03:07:00.302Z,82.6
2018-04-06T03:07:40.695Z,82.7
2018-04-06T03:08:21.173Z,82.13
2018-04-06T03:09:01.561Z,81.66
2018-04-06T03:09:41.965Z,81.56
2018-04-06T03:10:22.328Z,81.94
2018-04-06T03:11:02.759Z,82.23
2018-04-06T03:11:43.185Z,83.27
2018-04-06T03:12:23.526Z,83.27
2018-04-06T03:13:03.954Z,82.7
2018-04-06T03:13:44.344Z,82.13
2018-04-06T03:14:24.689Z,81.47
2018-04-06T03:15:05.106Z,80.9
2018-04-06T03:15:45.501Z,82.42
2018-04-06T03:16:25.920Z,83.65
2018-04-06T03:17:06.253Z,83.94
2018-04-06T03:17:46.742Z,83.08
2018-04-06T03:18:27.075Z,82.13
2018-04-06T03:19:07.448Z,81.66
2018-04-06T03:19:47.869Z,81.85
2018-04-06T03:20:28.256Z,80.43
2018-04-06T03:21:08.674Z,80.04
2018-04-06T03:21:49.003Z,79.76
2018-04-06T03:22:29.442Z,79.47
2018-04-06T03:23:09.846Z,79.19
2018-04-06T03:23:50.281Z,79.1
2018-04-06T03:24:30.675Z,80.24
2018-04-06T03:25:11.018Z,80.9
2018-04-06T03:25:51.441Z,80.62
2018-04-06T03:26:31.847Z,80.62
2018-04-06T03:27:12.243Z,80.33
2018-04-06T03:27:52.606Z,79.66
2018-04-06T03:28:33.021Z,79.85
2018-04-06T03:29:13.498Z,80
2018-04-06T03:29:53.875Z,79.91
2018-04-06T03:30:34.321Z,81.14
2018-04-06T03:31:14.653Z,82.09
2018-04-06T03:31:55.100Z,83.51
2018-04-06T03:32:35.424Z,83.55
2018-04-06T03:33:15.877Z,83.55
2018-04-06T03:33:56.209Z,82.89
2018-04-06T03:34:36.641Z,81.47
2018-04-06T03:35:17.139Z,82.13
2018-04-06T03:35:57.440Z,82.7
2018-04-06T03:36:37.854Z,84.22
2018-04-06T03:37:18.299Z,84.88
2018-04-06T03:37:58.639Z,85.17
2018-04-06T03:38:39.107Z,83.27
2018-04-06T03:39:19.470Z,81.66
2018-04-06T03:39:59.838Z,80.9
2018-04-06T03:40:40.219Z,79.95
2018-04-06T03:41:20.608Z,80.71
2018-04-06T03:42:01.101Z,80.33
2018-04-06T03:42:41.425Z,79.76
2018-04-06T03:43:21.870Z,80.04
2018-04-06T03:44:02.291Z,80.43
2018-04-06T03:44:42.649Z,81.09
2018-04-06T03:45:23.099Z,80.52
2018-04-06T03:46:03.489Z,79.95
2018-04-06T03:46:43.936Z,79.66
2018-04-06T03:47:24.389Z,80.24
2018-04-06T03:48:04.744Z,79.76
2018-04-06T03:48:45.166Z,80.9
2018-04-06T03:49:25.514Z,81.56
2018-04-06T03:50:05.924Z,81.85
2018-04-06T03:50:46.338Z,81.85
2018-04-06T03:51:26.806Z,81.66
2018-04-06T03:52:07.176Z,81.37
2018-04-06T03:52:47.528Z,80.62
2018-04-06T03:53:27.953Z,80.99
2018-04-06T03:54:08.333Z,80.99
2018-04-06T03:54:48.754Z,81.09
2018-04-06T03:55:29.120Z,80.99
2018-04-06T03:56:09.531Z,82.23
2018-04-06T03:56:49.943Z,81.9
2018-04-06T03:57:30.261Z,82.18
2018-04-06T03:58:10.708Z,82.09
2018-04-06T03:58:51.071Z,81.9
2018-04-06T03:59:31.603Z,81.81
2018-04-06T04:00:11.994Z,81.52
2018-04-06T04:00:52.432Z,81.43
2018-04-06T04:01:32.757Z,81.9
2018-04-06T04:41:28.536Z,89.29
2018-04-06T04:42:08.853Z,88.73
2018-04-06T04:42:49.323Z,87.68
2018-04-06T04:43:29.657Z,86.74
2018-04-06T04:44:10.050Z,86.93
2018-04-06T04:44:50.558Z,86.83
2018-04-06T04:45:30.971Z,85.46
2018-04-06T04:46:11.400Z,85.46
2018-04-06T04:46:51.759Z,85.65
2018-04-06T04:47:32.203Z,86.22
2018-04-06T04:48:12.616Z,86.22
2018-04-06T04:48:53.202Z,86.79
2018-04-06T04:49:33.567Z,86.69
2018-04-06T04:50:13.997Z,88.21
2018-04-06T04:50:54.377Z,88.4
2018-04-06T04:51:34.737Z,88.49
2018-04-06T04:52:15.374Z,89.06
2018-04-06T04:52:55.702Z,89.72
2018-04-06T04:53:36.137Z,89.63
2018-04-06T04:54:16.519Z,89.82
2018-04-06T04:54:57.075Z,89.15
2018-04-06T04:55:37.462Z,88.96
2018-04-06T04:56:18.102Z,88.21
2018-04-06T04:56:58.582Z,87.92
2018-04-06T04:57:38.913Z,87.64
2018-04-06T04:58:19.354Z,87.64
2018-04-06T04:58:59.742Z,88.21
2018-04-06T04:59:40.202Z,88.49
2018-04-06T05:00:20.612Z,88.78
2018-04-06T05:01:01.055Z,88.59
2018-04-06T05:01:41.561Z,88.49
2018-04-06T05:02:21.991Z,88.59
2018-04-06T05:03:03.041Z,88.21
2018-04-06T05:03:54.876Z,87.92
2018-04-06T05:04:35.288Z,87.54
2018-04-06T05:05:15.846Z,87.54
2018-04-06T05:05:56.450Z,87.54
2018-04-06T05:06:37.306Z,87.73
2018-04-06T05:07:18.226Z,87.73
2018-04-06T05:07:58.587Z,87.45
2018-04-06T05:08:39.273Z,87.26
2018-04-06T05:09:20.023Z,87.26
2018-04-06T05:10:00.503Z,86.98
2018-04-06T05:10:40.952Z,87.77
2018-04-06T05:11:21.360Z,87.68
2018-04-06T05:12:01.736Z,87.87
2018-04-06T05:12:42.267Z,87.77
2018-04-06T05:13:22.610Z,86.93
2018-04-06T05:14:02.999Z,86.93
2018-04-06T05:14:43.406Z,86.78
2018-04-06T05:15:23.764Z,85.74
2018-04-06T05:16:04.213Z,84.12
2018-04-06T05:16:44.646Z,82.7
2018-04-06T05:17:25.014Z,82.04
2018-04-06T05:18:05.343Z,82.13
2018-04-06T05:18:45.773Z,81.85
2018-04-06T05:19:26.555Z,82.04
2018-04-06T05:20:07.108Z,82.79
2018-04-06T05:20:47.408Z,83.17
2018-04-06T05:21:28.408Z,82.13
2018-04-06T05:22:09.972Z,81.88
2018-04-06T05:22:54.942Z,81.32
2018-04-06T05:23:38.132Z,80.08
2018-04-06T05:24:19.385Z,79.71
2018-04-06T05:24:59.833Z,79.99
2018-04-06T05:25:40.326Z,80.27
2018-04-06T05:26:20.810Z,79.61
2018-04-06T05:27:01.546Z,79.04
2018-04-06T05:27:42.021Z,78.28
2018-04-06T05:28:22.480Z,78.28
2018-04-06T05:29:03.003Z,78.09
2018-04-06T05:29:44.742Z,77.14
2018-04-06T05:30:25.183Z,78.23
2018-04-06T05:31:07.046Z,78.13
2018-04-06T05:31:47.548Z,77.56
2018-04-06T05:32:45.477Z,76.9
2018-04-06T05:33:28.937Z,75.99
2018-04-06T05:34:08.848Z,75.79
2018-04-06T05:34:49.237Z,75.32
2018-04-06T05:35:30.860Z,74.08
2018-04-06T05:36:11.491Z,74.08
2018-04-06T05:36:53.833Z,73.99
2018-04-06T05:37:33.745Z,73.46
2018-04-06T05:38:18.505Z,73.36
2018-04-06T05:38:59.129Z,73.18
2018-04-06T05:39:48.452Z,72.79
2018-04-06T05:41:36.730Z,72.03
2018-04-06T05:42:17.448Z,72.13
2018-04-06T05:42:57.849Z,72.03
2018-04-06T05:43:38.235Z,71.75
2018-04-06T05:44:18.639Z,70.79
2018-04-06T05:44:59.026Z,70.32
2018-04-06T05:45:39.573Z,70.61
2018-04-06T05:46:20.010Z,71.46
2018-04-06T05:47:00.441Z,70.51
2018-04-06T05:47:40.832Z,70.26
2018-04-06T05:48:21.263Z,70.45
2018-04-06T05:49:01.781Z,68.74
2018-04-06T05:49:42.147Z,69.02
2018-04-06T05:50:22.589Z,69.21
2018-04-06T05:51:02.973Z,67.54
2018-04-06T05:51:45.176Z,67.25
2018-04-06T05:52:25.587Z,66.59
2018-04-06T05:53:06.469Z,66.55
2018-04-06T05:53:46.906Z,66.87
2018-04-06T05:54:28.489Z,67.44
2018-04-06T05:55:08.186Z,68.21
2018-04-06T05:55:48.591Z,67.25
2018-04-06T05:56:28.991Z,66.49
2018-04-06T05:57:10.563Z,66.02
2018-04-06T05:57:50.953Z,65.16
2018-04-06T05:58:31.943Z,64.97
2018-04-06T05:59:12.221Z,66.02
2018-04-06T05:59:53.169Z,65.67
2018-04-06T06:00:35.680Z,64.81
2018-04-06T06:01:17.483Z,64.53
2018-04-06T06:01:57.368Z,65.1
2018-04-06T06:02:39.167Z,64.72
2018-04-06T06:03:19.780Z,65.38
2018-04-06T06:03:59.976Z,65
2018-04-06T06:04:43.590Z,66.18
2018-04-06T06:05:24.066Z,64.37
2018-04-06T06:06:04.459Z,62.65
2018-04-06T06:06:44.834Z,62.65
2018-04-06T06:07:25.899Z,61.9
2018-04-06T06:08:06.673Z,62.08
2018-04-06T06:10:28.136Z,62.46
2018-04-06T06:11:11.384Z,62.53
2018-04-06T06:11:51.902Z,62.34
2018-04-06T06:12:32.396Z,63.39
2018-04-06T06:13:14.730Z,64.08
2018-04-06T06:13:55.599Z,63.13
2018-04-06T06:14:36.482Z,63.23
2018-04-06T06:15:17.291Z,62.75
2018-04-06T06:15:59.467Z,62.18
2018-04-06T06:16:40.668Z,62.75
2018-04-06T06:17:21.035Z,62.65
2018-04-06T06:18:02.151Z,62.75
2018-04-06T06:18:43.933Z,62.65
2018-04-06T06:19:24.332Z,62.37
2018-04-06T06:20:05.103Z,62.85
2018-04-06T06:20:45.610Z,62.15
2018-04-06T06:21:26.810Z,63.57
2018-04-06T06:22:07.840Z,63.39
2018-04-06T06:24:08.173Z,63.29
2018-04-06T06:24:51.299Z,63.64
2018-04-06T06:25:32.442Z,64.21
2018-04-06T06:26:13.293Z,64.69
2018-04-06T06:26:53.590Z,65.16
2018-04-06T06:27:34.183Z,64.87
2018-04-06T06:28:15.647Z,65.6
2018-04-06T06:28:57.809Z,66.27
2018-04-06T06:29:39.231Z,66.65
2018-04-06T06:30:19.872Z,67.22
2018-04-06T06:31:01.659Z,67.69
2018-04-06T06:31:42.141Z,67.69
2018-04-06T06:32:23.558Z,67.22
2018-04-06T06:33:04.084Z,67.22
2018-04-06T06:33:44.671Z,67.22
2018-04-06T06:34:27.956Z,67.22
2018-04-06T06:35:08.361Z,68.07
2018-04-06T06:35:49.703Z,68.65
2018-04-06T06:36:31.449Z,67.69
2018-04-06T06:37:12.923Z,68.17
2018-04-06T06:37:54.411Z,68.27
2018-04-06T06:38:34.910Z,68.13
2018-04-06T06:39:17.685Z,68.42
2018-04-06T06:39:58.431Z,69.09
2018-04-06T06:40:39.175Z,69.37
2018-04-06T06:41:20.160Z,69.66
2018-04-06T06:42:00.606Z,69.66
2018-04-06T06:42:41.096Z,69.46
2018-04-06T06:43:21.897Z,69.46
2018-04-06T06:44:02.298Z,69.37
2018-04-06T06:44:43.050Z,69.66
2018-04-06T06:45:23.605Z,69.18
2018-04-06T06:46:05.212Z,69.66
2018-04-06T06:46:47.852Z,69.85
2018-04-06T06:47:28.568Z,69.85
2018-04-06T06:48:09.613Z,69.56
2018-04-06T06:48:50.690Z,69.5
2018-04-06T06:49:32.076Z,68.55
2018-04-06T06:50:15.203Z,68.84
2018-04-06T06:50:55.765Z,68.27
2018-04-06T06:51:36.946Z,68.36
2018-04-06T06:52:17.305Z,67.79
2018-04-06T06:52:58.047Z,67.98
2018-04-06T06:53:40.146Z,69.02
2018-04-06T06:54:22.116Z,69.02
2018-04-06T06:55:03.455Z,70.17
2018-04-06T06:55:43.808Z,69.06
2018-04-06T06:56:24.184Z,67.82
2018-04-06T06:57:06.076Z,67.44
2018-04-06T06:57:46.540Z,67.44
2018-04-06T06:58:27.941Z,67.13
2018-04-06T06:59:08.210Z,67.98
2018-04-06T06:59:50.234Z,68.46
2018-04-06T07:00:32.453Z,69.02
2018-04-06T07:01:12.948Z,69.6
2018-04-06T07:01:53.396Z,69.12
2018-04-06T07:02:33.867Z,69.31
2018-04-06T07:03:14.321Z,69.37
2018-04-06T07:03:54.797Z,69.46
2018-04-06T07:04:35.439Z,69.85
2018-04-06T07:05:15.878Z,70.32
2018-04-06T07:05:57.214Z,70.7
2018-04-06T07:06:37.555Z,71.37
2018-04-06T07:07:18.919Z,71.27
2018-04-06T07:07:59.409Z,71.22
2018-04-06T07:08:41.166Z,70.07
2018-04-06T07:09:22.046Z,69.79
2018-04-06T07:10:02.438Z,69.25
2018-04-06T07:10:42.922Z,68.3
2018-04-06T07:12:56.757Z,66.24
2018-04-06T07:13:37.459Z,65.45
2018-04-06T07:14:17.925Z,65.95
2018-04-06T07:16:15.673Z,65.25
2018-04-06T07:16:55.873Z,65.64
2018-04-06T07:17:36.387Z,65.67
2018-04-06T07:18:16.917Z,65.48
2018-04-06T07:18:57.186Z,64.97
2018-04-06T07:19:37.845Z,65.45
2018-04-06T07:20:18.125Z,66.11
2018-04-06T07:20:58.569Z,65.64
2018-04-06T07:21:39.096Z,65.54
2018-04-06T07:22:19.377Z,65.92
2018-04-06T07:22:59.841Z,66.39
2018-04-06T07:23:40.266Z,65.95
2018-04-06T07:24:20.637Z,65.1
2018-04-06T07:25:01.238Z,64.72
2018-04-06T07:25:41.697Z,63.57
2018-04-06T07:26:21.987Z,64.28
2018-04-06T07:27:02.618Z,63.7
2018-04-06T07:27:43.039Z,63.13
2018-04-06T07:28:23.966Z,62.46
2018-04-06T07:29:04.364Z,62.08
2018-04-06T07:29:44.836Z,61.99
2018-04-06T07:30:25.391Z,60.94
2018-04-06T07:31:05.758Z,60.37
2018-04-06T07:31:46.812Z,60.66
2018-04-06T07:32:28.237Z,61.58
2018-04-06T07:33:08.983Z,62.62
2018-04-06T07:33:49.117Z,62.81
2018-04-06T07:34:29.515Z,63.29
2018-04-06T07:35:09.962Z,63.39
2018-04-06T07:35:50.664Z,63.57
2018-04-06T07:36:30.786Z,62.72
2018-04-06T07:37:11.381Z,63.2
2018-04-06T07:37:51.784Z,62.24
2018-04-06T07:38:32.268Z,62.34
2018-04-06T07:39:12.797Z,63.01
2018-04-06T07:39:53.259Z,62.91
2018-04-06T07:40:33.709Z,62.94
2018-04-06T07:41:14.296Z,62.18
2018-04-06T07:41:54.771Z,61.32
2018-04-06T07:42:35.300Z,60.56
2018-04-06T07:43:21.195Z,60.27
2018-04-06T07:44:03.470Z,59.51
2018-04-06T07:44:43.819Z,59.61
2018-04-06T07:45:24.284Z,60.18
2018-04-06T07:46:05.639Z,59.99
2018-04-06T07:46:47.038Z,60.75
2018-04-06T07:47:27.790Z,61.04
2018-04-06T07:48:08.559Z,60.46
2018-04-06T07:48:48.947Z,59.03
2018-04-06T07:49:30.396Z,59.26
2018-04-06T07:50:10.797Z,59.06
2018-04-06T07:50:51.229Z,58.21
2018-04-06T07:51:31.832Z,57.26
2018-04-06T07:52:12.724Z,57.45
2018-04-06T07:52:53.973Z,56.87
2018-04-06T07:53:34.685Z,56.75
2018-04-06T07:54:15.643Z,57.32
2018-04-06T07:54:56.043Z,57.51
2018-04-06T07:55:36.831Z,57.89
2018-04-06T07:56:17.379Z,57.8
2018-04-06T07:56:57.806Z,58.65
2018-04-06T07:57:38.406Z,58.37
2018-04-06T07:58:19.122Z,58.56
2018-04-06T07:58:59.792Z,57.99
2018-04-06T07:59:40.200Z,57.64
2018-04-06T08:00:21.060Z,57.26
2018-04-06T08:01:01.885Z,56.68
2018-04-06T08:01:43.142Z,56.78
2018-04-06T08:02:45.181Z,56.68
2018-04-06T08:03:40.150Z,55.73
2018-04-06T08:04:21.028Z,54.78
2018-04-06T08:05:17.978Z,54.88
2018-04-06T08:06:30.749Z,54.88
2018-04-06T08:07:11.444Z,55.09
2018-04-06T08:07:51.917Z,54.9
2018-04-06T08:08:32.479Z,54.33
2018-04-06T08:09:14.016Z,54.33
2018-04-06T08:09:54.529Z,54.39
2018-04-06T08:10:35.093Z,54.59
2018-04-06T08:11:15.957Z,54.68
2018-04-06T08:11:56.105Z,55.26
2018-04-06T08:12:36.606Z,55.35
2018-04-06T08:13:17.049Z,55.57
2018-04-06T08:13:57.520Z,55.38
2018-04-06T08:14:39.196Z,54.52
2018-04-06T08:15:19.713Z,54.61
2018-04-06T08:16:00.454Z,54.68
2018-04-06T08:16:40.726Z,54.21
2018-04-06T08:17:21.275Z,54.21
2018-04-06T08:18:01.643Z,54.02
2018-04-06T08:18:43.555Z,54.49
2018-04-06T08:19:26.573Z,53.83
2018-04-06T08:20:36.862Z,52.87
2018-04-06T08:21:17.466Z,52.49
2018-04-06T08:21:58.638Z,52.49
2018-04-06T08:22:39.392Z,52.68
2018-04-06T08:23:22.283Z,53.44
2018-04-06T08:24:02.717Z,53.92
2018-04-06T08:25:05.132Z,54.02
2018-04-06T08:27:30.827Z,52.97
2018-04-06T08:28:11.744Z,52.97
2018-04-06T08:28:52.122Z,52.11
2018-04-06T08:29:32.704Z,52.2
2018-04-06T08:30:14.064Z,52.2
2018-04-06T08:30:54.170Z,52.14
2018-04-06T08:31:35.588Z,52.14
2018-04-06T08:32:16.137Z,52.71
2018-04-06T08:32:56.862Z,52.42
2018-04-06T08:33:37.553Z,52.8
2018-04-06T08:34:18.728Z,52.26
2018-04-06T08:35:00.463Z,51.28
2018-04-06T08:35:40.867Z,51.09
2018-04-06T08:36:23.605Z,50.99
2018-04-06T08:37:04.224Z,51.76
2018-04-06T08:37:45.651Z,51.54
2018-04-06T08:38:27.114Z,51.54
2018-04-06T08:39:07.574Z,51.82
2018-04-06T08:39:48.018Z,52.04
2018-04-06T08:40:28.571Z,51.76
2018-04-06T08:41:08.967Z,50.3
2018-04-06T08:41:49.532Z,50.11
2018-04-06T08:42:30.150Z,51.16
2018-04-06T08:43:11.367Z,50.87
2018-04-06T08:43:51.872Z,52.01
2018-04-06T08:44:32.654Z,52.4
2018-04-06T08:45:14.562Z,52.11
2018-04-06T08:45:55.297Z,51.64
2018-04-06T08:46:36.121Z,50.59
2018-04-06T08:47:16.355Z,50.3
2018-04-06T08:47:56.965Z,50.21
2018-04-06T08:48:37.704Z,50.49
2018-04-06T08:49:18.445Z,50.21
2018-04-06T08:49:58.817Z,50.3
2018-04-06T08:50:39.950Z,50.13
2018-04-06T08:51:20.543Z,49.26
2018-04-06T08:52:00.970Z,49.63
2018-04-06T08:52:41.512Z,50.23
2018-04-06T08:53:22.253Z,49.37
2018-04-06T08:54:13.664Z,48.42
2018-04-06T08:54:55.567Z,48.04
2018-04-06T08:55:36.917Z,47.85
2018-04-06T08:56:17.603Z,48.42
2018-04-06T08:56:58.697Z,47.94
2018-04-06T08:57:39.912Z,47.08
2018-04-06T08:58:20.338Z,46.23
2018-04-06T08:59:00.740Z,46.04
2018-04-06T08:59:41.745Z,46.32
2018-04-06T09:00:22.523Z,47.08
2018-04-06T09:01:04.199Z,47.75
2018-04-06T09:01:45.174Z,48.13
2018-04-06T09:02:36.805Z,47.94
2018-04-06T09:03:17.434Z,48.23
2018-04-06T09:03:57.814Z,47.94
2018-04-06T09:04:39.489Z,47.75
2018-04-06T09:05:19.218Z,47.75
2018-04-06T09:05:59.613Z,47.39
2018-04-06T09:06:40.158Z,47.11
2018-04-06T09:07:20.595Z,46.92
2018-04-06T09:08:02.829Z,47.11
2018-04-06T09:08:43.199Z,47.42
2018-04-06T09:09:23.879Z,46.08
2018-04-06T09:11:37.420Z,45.89
2018-04-06T09:12:18.710Z,46.27
2018-04-06T09:12:59.303Z,45.03
2018-04-06T09:13:39.652Z,44.46
2018-04-06T09:14:20.800Z,44.17
2018-04-06T09:15:01.236Z,44.1
2018-04-06T09:15:42.791Z,43.33
2018-04-06T09:16:23.629Z,43.53
2018-04-06T09:17:04.318Z,42.86
2018-04-06T09:17:45.166Z,42.96
2018-04-06T09:18:25.597Z,42.86
2018-04-06T09:19:06.341Z,43.53
2018-04-06T09:19:46.619Z,42.96
2018-04-06T09:20:27.084Z,42.86
2018-04-06T09:21:07.596Z,43.05
2018-04-06T09:21:48.086Z,42.69
2018-04-06T09:22:29.188Z,42.4
2018-04-06T09:23:09.689Z,42.19
2018-04-06T09:23:50.532Z,42.1
2018-04-06T09:24:30.967Z,41.62
2018-04-06T09:25:11.370Z,41.43
2018-04-06T09:25:52.718Z,41.81
2018-04-06T09:26:33.159Z,41.91
2018-04-06T09:27:13.666Z,41.71
2018-04-06T09:27:54.236Z,42.1
2018-04-06T09:28:34.714Z,42.29
2018-04-06T09:29:15.161Z,42.29
2018-04-06T09:29:55.649Z,42.21
2018-04-06T09:30:36.070Z,41.14
2018-04-06T09:31:16.799Z,41.14
2018-04-06T09:31:58.006Z,41.14
2018-04-06T09:32:38.409Z,41.33
2018-04-06T09:33:19.022Z,41.52
2018-04-06T09:33:59.442Z,41.14
2018-04-06T09:34:39.885Z,41.33
2018-04-06T09:35:20.405Z,41.43
2018-04-06T09:36:00.709Z,42.1
2018-04-06T09:36:41.270Z,41.91
2018-04-06T09:37:21.850Z,41.14
2018-04-06T09:38:02.125Z,41.26